createdAt,value
2023-03-26T00:02:01.460Z,101189.38
2023-03-26T00:05:06.790Z,101124.97
2023-03-26T00:08:13.585Z,101176.41
2023-03-26T00:11:19.651Z,101200.66
2023-03-26T00:14:27.456Z,101165.41
2023-03-26T00:17:31.858Z,101153.28
2023-03-26T00:20:40.792Z,101185.06
2023-03-26T00:23:50.108Z,101183.72
2023-03-26T00:26:54.824Z,101182.06
2023-03-26T00:30:00.624Z,101186.63
2023-03-26T00:33:09.601Z,101173.47
2023-03-26T00:36:20.872Z,101178.88
2023-03-26T00:39:26.548Z,101183.22
2023-03-26T00:42:31.055Z,101192.94
2023-03-26T00:45:37.741Z,101195.69
2023-03-26T00:48:46.025Z,101165.81
2023-03-26T00:51:56.763Z,101168.63
2023-03-26T00:55:01.348Z,101183.59
2023-03-26T00:58:13.372Z,101159.84
2023-03-26T01:01:23.259Z,101181.84
2023-03-26T01:04:35.430Z,101166.00
2023-03-26T01:07:43.589Z,101172.09
2023-03-26T01:10:51.692Z,101162.28
2023-03-26T01:14:00.768Z,101165.63
2023-03-26T01:17:07.529Z,101164.03
2023-03-26T01:20:27.322Z,101158.56
2023-03-26T01:23:47.315Z,101150.59
2023-03-26T01:27:30.143Z,101154.94
2023-03-26T01:30:50.219Z,101151.31
2023-03-26T01:34:05.075Z,101147.78
2023-03-26T01:37:31.328Z,101143.19
2023-03-26T01:40:43.577Z,101144.97
2023-03-26T01:44:35.256Z,101142.19
2023-03-26T01:47:42.961Z,101140.44
2023-03-26T01:50:52.145Z,101136.09
2023-03-26T01:53:57.749Z,101111.34
2023-03-26T01:57:19.837Z,101139.19
2023-03-26T02:00:34.821Z,101122.63
2023-03-26T02:03:52.813Z,101118.44
2023-03-26T02:07:06.819Z,101110.41
2023-03-26T02:10:21.890Z,101118.94
2023-03-26T02:13:27.473Z,101108.16
2023-03-26T02:16:31.572Z,101101.59
2023-03-26T02:19:36.684Z,101068.34
2023-03-26T02:22:42.122Z,101088.59
2023-03-26T02:25:47.971Z,101077.13
2023-03-26T02:28:52.077Z,101085.97
2023-03-26T02:31:56.636Z,101072.78
2023-03-26T02:35:02.116Z,101067.44
2023-03-26T02:38:07.531Z,101067.28
2023-03-26T02:41:12.125Z,101075.06
2023-03-26T02:44:42.719Z,101065.50
2023-03-26T02:47:51.868Z,101059.31
2023-03-26T02:51:21.952Z,101060.19
2023-03-26T02:54:39.157Z,101053.16
2023-03-26T02:58:02.653Z,101054.09
2023-03-26T03:01:14.225Z,101051.50
2023-03-26T03:04:26.581Z,101044.50
2023-03-26T03:07:30.955Z,101029.59
2023-03-26T03:10:40.056Z,101033.06
2023-03-26T03:13:58.738Z,101024.31
2023-03-26T03:17:06.167Z,101011.16
2023-03-26T03:20:22.716Z,101020.75
2023-03-26T03:23:27.405Z,101003.06
2023-03-26T03:26:43.404Z,101001.31
2023-03-26T03:30:07.884Z,101003.09
2023-03-26T03:33:33.218Z,100989.88
2023-03-26T03:36:41.260Z,100985.53
2023-03-26T03:40:00.692Z,100999.47
2023-03-26T03:43:09.381Z,100989.88
2023-03-26T03:46:21.807Z,100970.63
2023-03-26T03:49:31.377Z,100976.50
2023-03-26T03:52:38.916Z,100960.69
2023-03-26T03:55:55.128Z,100973.66
2023-03-26T03:59:03.562Z,100963.28
2023-03-26T04:02:12.484Z,100951.13
2023-03-26T04:05:24.419Z,100948.47
2023-03-26T04:08:30.089Z,100942.44
2023-03-26T04:11:38.830Z,100939.06
2023-03-26T04:15:02.932Z,100933.84
2023-03-26T04:18:11.424Z,100929.41
2023-03-26T04:21:25.880Z,100907.44
2023-03-26T04:24:39.169Z,100918.00
2023-03-26T04:28:07.629Z,100923.25
2023-03-26T04:31:46.056Z,100917.19
2023-03-26T04:34:51.923Z,100903.13
2023-03-26T04:38:07.300Z,100895.22
2023-03-26T04:41:21.129Z,100917.16
2023-03-26T04:44:32.518Z,100900.47
2023-03-26T04:47:41.481Z,100884.63
2023-03-26T04:50:47.141Z,100896.06
2023-03-26T04:54:00.583Z,100892.53
2023-03-26T04:57:14.873Z,100871.44
2023-03-26T05:00:42.699Z,100865.28
2023-03-26T05:03:46.918Z,100866.19
2023-03-26T05:06:56.671Z,100852.06
2023-03-26T05:10:23.607Z,100827.53
2023-03-26T05:13:35.784Z,100845.16
2023-03-26T05:16:49.278Z,100857.41
2023-03-26T05:19:54.074Z,100838.94
2023-03-26T05:22:58.567Z,100855.53
2023-03-26T05:26:25.549Z,100847.59
2023-03-26T05:29:29.710Z,100824.59
2023-03-26T05:32:34.803Z,100835.97
2023-03-26T05:35:39.325Z,100837.03
2023-03-26T05:38:50.313Z,100842.31
2023-03-26T05:42:17.946Z,100840.75
2023-03-26T05:45:57.509Z,100839.84
2023-03-26T05:49:05.321Z,100847.78
2023-03-26T05:52:15.998Z,100846.06
2023-03-26T05:55:41.326Z,100841.66
2023-03-26T05:59:03.631Z,100850.44
2023-03-26T06:02:26.496Z,100843.38
2023-03-26T06:06:11.722Z,100827.56
2023-03-26T06:09:23.782Z,100838.13
2023-03-26T06:12:28.994Z,100842.56
2023-03-26T06:15:33.322Z,100818.78
2023-03-26T06:18:41.245Z,100824.97
2023-03-26T06:22:06.243Z,100829.38
2023-03-26T06:25:26.976Z,100842.53
2023-03-26T06:28:44.910Z,100837.28
2023-03-26T06:32:19.183Z,100834.66
2023-03-26T06:35:39.269Z,100831.13
2023-03-26T06:38:43.632Z,100833.78
2023-03-26T06:41:50.036Z,100824.09
2023-03-26T06:45:15.963Z,100832.03
2023-03-26T06:48:52.914Z,100838.16
2023-03-26T06:52:15.756Z,100837.28
2023-03-26T06:55:28.451Z,100842.53
2023-03-26T06:58:49.401Z,100832.84
2023-03-26T07:02:17.333Z,100775.66
2023-03-26T07:05:42.490Z,100825.72
2023-03-26T07:09:05.417Z,100828.34
2023-03-26T07:12:16.657Z,100809.13
2023-03-26T07:15:59.782Z,100828.31
2023-03-26T07:19:39.185Z,100825.69
2023-03-26T07:22:43.786Z,100822.19
2023-03-26T07:25:53.875Z,100817.91
2023-03-26T07:29:46.880Z,100818.75
2023-03-26T07:33:19.524Z,100820.50
2023-03-26T07:37:17.104Z,100815.13
2023-03-26T07:41:20.182Z,100818.78
2023-03-26T07:44:54.908Z,100818.63
2023-03-26T07:48:30.385Z,100813.41
2023-03-26T07:51:55.251Z,100820.44
2023-03-26T07:55:20.617Z,100816.81
2023-03-26T07:59:27.904Z,100808.97
2023-03-26T08:03:00.398Z,100809.00
2023-03-26T08:06:41.300Z,100809.84
2023-03-26T08:10:00.864Z,100802.75
2023-03-26T08:13:31.825Z,100805.38
2023-03-26T08:17:05.901Z,100807.25
2023-03-26T08:20:21.703Z,100808.72
2023-03-26T08:23:50.735Z,100802.69
2023-03-26T08:27:03.604Z,100802.75
2023-03-26T08:30:19.391Z,100808.88
2023-03-26T08:33:27.866Z,100792.13
2023-03-26T08:36:32.682Z,100779.75
2023-03-26T08:39:39.638Z,100799.06
2023-03-26T08:43:07.324Z,100803.53
2023-03-26T08:46:16.602Z,100804.47
2023-03-26T08:49:32.710Z,100807.94
2023-03-26T08:52:53.441Z,100784.84
2023-03-26T08:56:13.885Z,100750.69
2023-03-26T08:59:46.625Z,100802.56
2023-03-26T09:03:16.977Z,100801.66
2023-03-26T09:06:39.278Z,100800.81
2023-03-26T09:09:55.456Z,100803.28
2023-03-26T09:13:08.707Z,100799.56
2023-03-26T09:16:19.117Z,100808.13
2023-03-26T09:19:43.356Z,100801.78
2023-03-26T09:23:14.652Z,100801.78
2023-03-26T09:26:31.782Z,100801.75
2023-03-26T09:29:57.833Z,100811.16
2023-03-26T09:33:18.011Z,100775.44
2023-03-26T09:36:31.167Z,100808.75
2023-03-26T09:39:45.917Z,100799.38
2023-03-26T09:42:54.946Z,100809.97
2023-03-26T09:46:12.482Z,100787.63
2023-03-26T09:49:25.561Z,100812.09
2023-03-26T09:52:48.107Z,100810.28
2023-03-26T09:56:05.258Z,100770.13
2023-03-26T09:59:39.693Z,100817.50
2023-03-26T10:03:07.023Z,100825.63
2023-03-26T10:06:38.758Z,100824.53
2023-03-26T10:10:01.518Z,100830.53
2023-03-26T10:13:25.472Z,100840.47
2023-03-26T10:17:03.896Z,100839.16
2023-03-26T10:20:20.817Z,100831.28
2023-03-26T10:23:58.572Z,100842.41
2023-03-26T10:27:17.651Z,100841.00
2023-03-26T10:30:56.745Z,100847.75
2023-03-26T10:34:38.247Z,100853.88
2023-03-26T10:38:01.512Z,100848.28
2023-03-26T10:41:22.551Z,100850.81
2023-03-26T10:45:00.268Z,100853.44
2023-03-26T10:48:15.399Z,100864.00
2023-03-26T10:51:25.512Z,100866.13
2023-03-26T10:55:04.971Z,100852.22
2023-03-26T10:58:48.713Z,100864.69
2023-03-26T11:02:17.143Z,100873.91
2023-03-26T11:05:47.343Z,100811.06
2023-03-26T11:09:19.636Z,100867.84
2023-03-26T11:12:33.152Z,100875.25
2023-03-26T11:15:47.951Z,100864.16
2023-03-26T11:19:18.265Z,100863.25
2023-03-26T11:22:28.498Z,100868.16
2023-03-26T11:26:00.379Z,100868.16
2023-03-26T11:29:31.033Z,100834.44
2023-03-26T11:33:01.780Z,100856.44
2023-03-26T11:36:17.588Z,100853.34
2023-03-26T11:39:28.061Z,100829.47
2023-03-26T11:42:32.278Z,100834.69
2023-03-26T11:45:40.120Z,100851.50
2023-03-26T11:48:54.271Z,100795.16
2023-03-26T11:51:59.974Z,100834.00
2023-03-26T11:55:04.338Z,100838.66
2023-03-26T11:58:32.603Z,100842.28
2023-03-26T12:01:59.513Z,100847.69
2023-03-26T12:05:17.291Z,100824.06
2023-03-26T12:08:33.331Z,100830.19
2023-03-26T12:11:40.259Z,100835.59
2023-03-26T12:14:45.600Z,100839.16
2023-03-26T12:17:54.396Z,100847.09
2023-03-26T12:21:28.387Z,100848.28
2023-03-26T12:24:35.137Z,100805.31
2023-03-26T12:27:45.718Z,100830.63
2023-03-26T12:31:09.148Z,100837.25
2023-03-26T12:34:21.910Z,100827.56
2023-03-26T12:37:41.053Z,100832.75
2023-03-26T12:40:45.992Z,100813.06
2023-03-26T12:44:52.814Z,100808.50
2023-03-26T12:47:57.381Z,100816.28
2023-03-26T12:51:04.902Z,100826.50
2023-03-26T12:54:38.135Z,100779.78
2023-03-26T12:58:13.669Z,100828.78
2023-03-26T13:01:46.652Z,100779.31
2023-03-26T13:05:09.412Z,100825.38
2023-03-26T13:08:44.429Z,100815.81
2023-03-26T13:12:35.287Z,100821.16
2023-03-26T13:16:02.818Z,100767.34
2023-03-26T13:19:28.004Z,100816.81
2023-03-26T13:23:24.472Z,100809.53
2023-03-26T13:26:46.919Z,100810.25
2023-03-26T13:30:32.067Z,100785.97
2023-03-26T13:34:08.577Z,100800.34
2023-03-26T13:37:47.404Z,100798.13
2023-03-26T13:40:58.355Z,100798.50
2023-03-26T13:44:17.677Z,100798.44
2023-03-26T13:47:27.248Z,100782.41
2023-03-26T13:50:42.151Z,100788.94
2023-03-26T13:53:56.145Z,100781.50
2023-03-26T13:57:08.540Z,100783.88
2023-03-26T14:00:19.148Z,100791.72
2023-03-26T14:03:46.151Z,100795.84
2023-03-26T14:06:58.056Z,100788.53
2023-03-26T14:10:16.714Z,100776.44
2023-03-26T14:13:28.849Z,100792.81
2023-03-26T14:16:49.277Z,100786.41
2023-03-26T14:20:12.089Z,100787.13
2023-03-26T14:23:40.786Z,100786.44
2023-03-26T14:27:14.769Z,100782.59
2023-03-26T14:30:18.955Z,100777.13
2023-03-26T14:33:43.462Z,100776.75
2023-03-26T14:37:18.897Z,100776.78
2023-03-26T14:40:58.353Z,100779.53
2023-03-26T14:44:30.067Z,100774.34
2023-03-26T14:48:33.610Z,100769.91
2023-03-26T14:52:02.222Z,100765.13
2023-03-26T14:55:18.312Z,100744.53
2023-03-26T14:58:46.028Z,100761.47
2023-03-26T15:02:02.549Z,100765.22
2023-03-26T15:05:28.369Z,100757.31
2023-03-26T15:08:59.205Z,100757.63
2023-03-26T15:12:22.027Z,100757.34
2023-03-26T15:15:54.305Z,100757.63
2023-03-26T15:19:37.418Z,100753.53
2023-03-26T15:23:22.420Z,100752.41
2023-03-26T15:26:48.400Z,100752.91
2023-03-26T15:30:23.298Z,100743.41
2023-03-26T15:33:44.936Z,100747.69
2023-03-26T15:37:04.431Z,100738.50
2023-03-26T15:40:26.771Z,100734.50
2023-03-26T15:47:44.104Z,100724.81
2023-03-26T15:51:29.903Z,100513.06
2023-03-26T15:54:58.138Z,100722.84
2023-03-26T15:58:27.464Z,100700.69
2023-03-26T16:01:52.873Z,100729.50
2023-03-26T16:05:20.519Z,100702.50
2023-03-26T16:08:56.870Z,100717.31
2023-03-26T16:12:13.251Z,100720.38
2023-03-26T16:15:32.929Z,100704.28
2023-03-26T16:18:39.070Z,100712.31
2023-03-26T16:22:02.966Z,100696.91
2023-03-26T16:25:35.154Z,100711.03
2023-03-26T16:29:04.965Z,100713.97
2023-03-26T16:32:17.024Z,100705.66
2023-03-26T16:35:21.472Z,100703.59
2023-03-26T16:38:30.780Z,100701.59
2023-03-26T16:41:41.490Z,100708.41
2023-03-26T16:45:07.675Z,100697.16
2023-03-26T16:48:31.483Z,100696.50
2023-03-26T16:51:54.634Z,100699.03
2023-03-26T16:55:17.706Z,100697.28
2023-03-26T16:58:38.752Z,100695.69
2023-03-26T17:01:58.449Z,100699.03
2023-03-26T17:05:26.224Z,100704.50
2023-03-26T17:08:45.058Z,100699.50
2023-03-26T17:12:00.777Z,100687.38
2023-03-26T17:15:16.133Z,100700.16
2023-03-26T17:18:26.558Z,100693.75
2023-03-26T17:21:46.855Z,100693.03
2023-03-26T17:25:36.036Z,100697.41
2023-03-26T17:29:12.021Z,100691.84
2023-03-26T17:32:16.872Z,100677.16
2023-03-26T17:35:44.751Z,100676.75
2023-03-26T17:38:49.033Z,100690.41
2023-03-26T17:42:13.410Z,100692.88
2023-03-26T17:45:25.883Z,100700.31
2023-03-26T17:48:36.320Z,100697.50
2023-03-26T17:51:52.903Z,100693.00
2023-03-26T17:54:58.075Z,100697.75
2023-03-26T17:58:20.100Z,100682.66
2023-03-26T18:01:44.945Z,100661.78
2023-03-26T18:04:53.702Z,100674.97
2023-03-26T18:08:16.147Z,100677.22
2023-03-26T18:11:54.926Z,100677.25
2023-03-26T18:15:28.812Z,100683.25
2023-03-26T18:18:36.339Z,100678.94
2023-03-26T18:21:41.937Z,100670.69
2023-03-26T18:24:47.239Z,100645.44
2023-03-26T18:27:52.346Z,100666.19
2023-03-26T18:30:56.916Z,100640.31
2023-03-26T18:34:13.104Z,100669.91
2023-03-26T18:37:20.423Z,100674.38
2023-03-26T18:40:27.777Z,100673.59
2023-03-26T18:43:43.717Z,100655.22
2023-03-26T18:46:49.315Z,100624.28
2023-03-26T18:49:57.988Z,100648.34
2023-03-26T18:53:02.996Z,100650.91
2023-03-26T18:56:32.930Z,100659.44
2023-03-26T18:59:41.233Z,100663.28
2023-03-26T19:02:48.797Z,100649.34
2023-03-26T19:05:57.600Z,100664.78
2023-03-26T19:09:02.301Z,100659.03
2023-03-26T19:12:29.450Z,100658.59
2023-03-26T19:15:36.373Z,100652.13
2023-03-26T19:18:44.029Z,100658.53
2023-03-26T19:21:50.289Z,100662.06
2023-03-26T19:25:00.639Z,100656.94
2023-03-26T19:28:08.512Z,100662.50
2023-03-26T19:35:05.281Z,100645.25
2023-03-26T19:38:23.986Z,100655.38
2023-03-26T19:41:44.407Z,100662.31
2023-03-26T19:44:51.232Z,100659.28
2023-03-26T19:48:07.745Z,100640.38
2023-03-26T19:51:32.541Z,100653.44
2023-03-26T19:54:59.719Z,100642.53
2023-03-26T19:58:06.907Z,100646.47
2023-03-26T20:01:18.722Z,100639.66
2023-03-26T20:04:23.166Z,100644.81
2023-03-26T20:07:35.938Z,100636.88
2023-03-26T20:10:40.736Z,100634.78
2023-03-26T20:13:45.119Z,100649.03
2023-03-26T20:16:49.096Z,100646.94
2023-03-26T20:19:55.112Z,100658.66
2023-03-26T20:22:59.801Z,100642.28
2023-03-26T20:26:04.181Z,100649.31
2023-03-26T20:29:08.639Z,100669.84
2023-03-26T20:32:25.601Z,100672.44
2023-03-26T20:35:36.203Z,100670.06
2023-03-26T20:38:45.757Z,100670.13
2023-03-26T20:41:51.874Z,100673.69
2023-03-26T20:44:55.960Z,100674.72
2023-03-26T20:48:00.150Z,100668.50
2023-03-26T20:51:06.009Z,100679.56
2023-03-26T20:54:23.972Z,100668.94
2023-03-26T20:57:28.309Z,100667.88
2023-03-26T21:00:33.297Z,100676.06
2023-03-26T21:03:39.005Z,100665.81
2023-03-26T21:06:44.016Z,100678.91
2023-03-26T21:09:51.400Z,100663.91
2023-03-26T21:13:12.074Z,100683.00
2023-03-26T21:16:16.829Z,100675.63
2023-03-26T21:19:25.012Z,100682.84
2023-03-26T21:23:02.594Z,100702.91
2023-03-26T21:26:33.895Z,100694.53
2023-03-26T21:29:47.637Z,100673.72
2023-03-26T21:32:52.998Z,100696.53
2023-03-26T21:39:19.057Z,100693.97
2023-03-26T21:42:30.054Z,100696.28
2023-03-26T21:45:34.899Z,100695.28
2023-03-26T21:48:39.323Z,100679.34
2023-03-26T21:51:44.585Z,100697.50
2023-03-26T21:54:49.259Z,100699.91
2023-03-26T21:58:05.396Z,100706.19
2023-03-26T22:01:18.659Z,100702.75
2023-03-26T22:04:25.247Z,100703.38
2023-03-26T22:07:39.605Z,100717.00
2023-03-26T22:10:43.992Z,100702.06
2023-03-26T22:13:48.348Z,100717.06
2023-03-26T22:16:52.319Z,100717.56
2023-03-26T22:19:57.209Z,100706.97
2023-03-26T22:23:02.591Z,100722.50
2023-03-26T22:26:07.272Z,100710.56
2023-03-26T22:29:11.294Z,100700.69
2023-03-26T22:32:15.174Z,100692.41
2023-03-26T22:35:19.871Z,100723.66
2023-03-26T22:38:24.633Z,100701.44
2023-03-26T22:41:30.577Z,100715.38
2023-03-26T22:44:34.891Z,100694.03
2023-03-26T22:47:39.259Z,100724.72
2023-03-26T22:50:44.611Z,100712.69
2023-03-26T22:53:48.973Z,100676.81
2023-03-26T22:56:53.481Z,100714.72
2023-03-26T22:59:59.378Z,100709.50
2023-03-26T23:03:03.479Z,100718.94
2023-03-26T23:06:10.701Z,100733.16
2023-03-26T23:09:15.739Z,100718.88
2023-03-26T23:12:20.340Z,100719.38
2023-03-26T23:15:26.710Z,100682.75
2023-03-26T23:18:31.352Z,100699.94
2023-03-26T23:21:37.592Z,100717.97
2023-03-26T23:24:41.506Z,100731.72
2023-03-26T23:27:45.704Z,100698.19
2023-03-26T23:30:54.922Z,100730.34
2023-03-26T23:34:00.594Z,100730.38
2023-03-26T23:37:05.519Z,100741.00
2023-03-26T23:40:11.196Z,100747.72
2023-03-26T23:43:16.119Z,100758.75
2023-03-26T23:46:22.996Z,100719.91
2023-03-26T23:49:28.065Z,100747.41
2023-03-26T23:52:32.784Z,100722.66
2023-03-26T23:55:37.204Z,100754.94
2023-03-26T23:58:41.580Z,100733.22
